createdAt,value
2019-03-09T00:00:58.712Z,90.91
2019-03-09T00:01:58.704Z,90.91
2019-03-09T00:02:58.690Z,91.01
2019-03-09T00:03:58.697Z,90.80
2019-03-09T00:04:58.671Z,90.91
2019-03-09T00:05:58.657Z,89.98
2019-03-09T00:06:58.650Z,90.39
2019-03-09T00:07:58.662Z,90.80
2019-03-09T00:08:58.624Z,90.39
2019-03-09T00:09:58.620Z,90.55
2019-03-09T00:10:58.606Z,89.98
2019-03-09T00:11:58.594Z,90.39
2019-03-09T00:12:58.584Z,90.70
2019-03-09T00:13:58.597Z,89.73
2019-03-09T00:14:58.563Z,88.74
2019-03-09T00:15:58.552Z,88.39
2019-03-09T00:16:58.538Z,88.39
2019-03-09T00:17:58.525Z,88.18
2019-03-09T00:18:58.547Z,86.94
2019-03-09T00:19:58.508Z,87.11
2019-03-09T00:20:58.498Z,87.52
2019-03-09T00:21:58.493Z,86.60
2019-03-09T00:22:58.473Z,86.60
2019-03-09T00:23:58.467Z,86.39
2019-03-09T00:24:58.479Z,86.29
2019-03-09T00:25:58.445Z,85.60
2019-03-09T00:26:58.429Z,86.80
2019-03-09T00:27:58.422Z,86.49
2019-03-09T00:28:58.422Z,85.87
2019-03-09T00:29:58.397Z,87.01
2019-03-09T00:30:58.417Z,86.08
2019-03-09T00:31:58.457Z,86.08
2019-03-09T00:32:58.369Z,86.29
2019-03-09T00:33:58.362Z,85.36
2019-03-09T00:34:58.343Z,85.01
2019-03-09T00:35:58.334Z,85.01
2019-03-09T00:36:58.354Z,84.59
2019-03-09T00:37:58.310Z,85.01
2019-03-09T00:38:58.307Z,84.91
2019-03-09T00:39:58.294Z,84.59
2019-03-09T00:40:58.282Z,85.01
2019-03-09T00:41:58.269Z,84.80
2019-03-09T00:42:58.295Z,85.11
2019-03-09T00:43:58.251Z,86.35
2019-03-09T00:44:58.240Z,86.45
2019-03-09T00:45:58.238Z,87.38
2019-03-09T00:46:58.255Z,87.42
2019-03-09T00:47:58.206Z,88.76
2019-03-09T00:48:58.211Z,88.65
2019-03-09T00:49:58.181Z,89.69
2019-03-09T00:50:58.177Z,90.00
2019-03-09T00:51:58.165Z,90.92
2019-03-09T00:52:58.175Z,90.86
2019-03-09T00:53:58.153Z,91.11
2019-03-09T00:54:58.148Z,92.00
2019-03-09T00:55:58.119Z,91.17
2019-03-09T00:56:58.110Z,91.48
2019-03-09T00:57:58.102Z,91.17
2019-03-09T00:58:58.088Z,92.21
2019-03-09T00:59:58.100Z,93.59
2019-03-09T01:00:58.066Z,93.18
2019-03-09T01:01:58.059Z,93.28
2019-03-09T01:02:58.056Z,93.79
2019-03-09T01:03:58.037Z,94.21
2019-03-09T01:04:58.023Z,95.86
2019-03-09T01:05:58.034Z,95.55
2019-03-09T01:06:58.001Z,96.48
2019-03-09T01:07:57.996Z,96.31
2019-03-09T01:08:57.981Z,96.21
2019-03-09T01:09:57.967Z,96.11
2019-03-09T01:10:58.001Z,96.42
2019-03-09T01:11:57.960Z,96.42
2019-03-09T01:12:57.936Z,96.83
2019-03-09T01:13:57.924Z,96.42
2019-03-09T01:14:57.922Z,97.45
2019-03-09T01:15:57.934Z,97.25
2019-03-09T01:16:57.895Z,98.18
2019-03-09T01:17:57.888Z,98.38
2019-03-09T01:18:57.871Z,97.86
2019-03-09T01:19:57.861Z,98.53
2019-03-09T01:20:57.849Z,98.38
2019-03-09T01:21:57.864Z,98.79
2019-03-09T01:22:57.837Z,97.76
2019-03-09T01:23:57.824Z,98.07
2019-03-09T01:24:57.810Z,98.49
2019-03-09T01:25:57.800Z,98.69
2019-03-09T01:26:57.783Z,98.69
2019-03-09T01:27:57.792Z,98.79
2019-03-09T01:28:57.771Z,99.21
2019-03-09T01:29:57.758Z,99.25
2019-03-09T01:30:57.743Z,99.87
2019-03-09T01:31:57.737Z,99.98
2019-03-09T01:32:57.744Z,99.99
2019-03-09T01:33:57.728Z,99.99
2019-03-09T01:34:57.704Z,99.99
2019-03-09T01:35:57.709Z,99.99
2019-03-09T01:36:57.695Z,99.99
2019-03-09T01:37:57.678Z,99.99
2019-03-09T01:38:57.677Z,99.99
2019-03-09T01:39:57.650Z,99.99
2019-03-09T01:40:57.635Z,99.99
2019-03-09T01:41:57.625Z,99.99
2019-03-09T01:42:57.618Z,99.99
2019-03-09T01:43:57.631Z,99.99
2019-03-09T01:44:57.593Z,99.99
2019-03-09T01:45:57.582Z,99.99
2019-03-09T01:46:57.577Z,99.99
2019-03-09T01:47:57.563Z,99.99
2019-03-09T01:48:57.554Z,99.99
2019-03-09T01:49:57.562Z,99.99
2019-03-09T01:50:57.526Z,99.99
2019-03-09T01:51:57.521Z,99.99
2019-03-09T01:52:57.508Z,99.99
2019-03-09T01:53:57.498Z,99.99
2019-03-09T01:54:57.508Z,99.99
2019-03-09T01:55:57.494Z,99.99
2019-03-09T01:56:57.466Z,99.99
2019-03-09T01:57:57.459Z,99.99
2019-03-09T01:58:57.439Z,99.99
2019-03-09T01:59:57.432Z,99.99
2019-03-09T02:00:57.451Z,99.99
2019-03-09T02:01:57.416Z,99.99
2019-03-09T02:02:57.397Z,99.99
2019-03-09T02:03:57.388Z,99.99
2019-03-09T02:04:57.378Z,99.99
2019-03-09T02:05:57.367Z,99.99
2019-03-09T02:06:57.398Z,99.99
2019-03-09T02:07:57.349Z,99.99
2019-03-09T02:08:57.361Z,99.99
2019-03-09T02:09:57.330Z,99.99
2019-03-09T02:10:57.313Z,99.99
2019-03-09T02:11:57.304Z,99.99
2019-03-09T02:12:57.294Z,99.99
2019-03-09T02:13:57.287Z,99.99
2019-03-09T02:14:57.296Z,99.99
2019-03-09T02:15:57.288Z,99.99
2019-03-09T02:16:57.250Z,99.99
2019-03-09T02:17:57.237Z,99.99
2019-03-09T02:18:57.247Z,99.99
2019-03-09T02:19:57.224Z,99.99
2019-03-09T02:20:57.236Z,99.99
2019-03-09T02:21:57.203Z,99.99
2019-03-09T02:22:57.186Z,99.99
2019-03-09T02:23:57.181Z,99.99
2019-03-09T02:24:57.165Z,99.99
2019-03-09T02:25:57.168Z,99.99
2019-03-09T02:26:57.172Z,99.99
2019-03-09T02:27:57.134Z,99.99
2019-03-09T02:28:57.124Z,99.99
2019-03-09T02:29:57.119Z,99.99
2019-03-09T02:30:57.106Z,99.99
2019-03-09T02:31:57.089Z,99.99
2019-03-09T02:32:57.173Z,99.99
2019-03-09T02:33:57.072Z,99.99
2019-03-09T02:34:57.054Z,99.99
2019-03-09T02:35:57.051Z,99.99
2019-03-09T02:36:57.033Z,99.99
2019-03-09T02:37:57.033Z,99.99
2019-03-09T02:38:57.042Z,99.99
2019-03-09T02:39:57.006Z,99.99
2019-03-09T02:40:57.010Z,99.99
2019-03-09T02:41:56.987Z,99.99
2019-03-09T02:42:56.973Z,99.99
2019-03-09T02:43:56.961Z,99.99
2019-03-09T02:44:56.981Z,99.99
2019-03-09T02:45:56.941Z,99.99
2019-03-09T02:46:56.933Z,99.99
2019-03-09T02:47:56.924Z,99.99
2019-03-09T02:48:56.906Z,99.99
2019-03-09T02:49:56.907Z,99.99
2019-03-09T02:50:56.938Z,99.99
2019-03-09T02:51:56.880Z,99.99
2019-03-09T02:52:56.872Z,99.99
2019-03-09T02:53:56.857Z,99.99
2019-03-09T02:54:56.845Z,99.99
2019-03-09T02:55:56.860Z,99.99
2019-03-09T02:56:56.822Z,99.99
2019-03-09T02:57:56.810Z,99.99
2019-03-09T02:58:56.803Z,99.99
2019-03-09T02:59:56.818Z,99.99
2019-03-09T03:00:56.784Z,99.99
2019-03-09T03:01:56.773Z,99.99
2019-03-09T03:02:56.758Z,99.99
2019-03-09T03:03:56.779Z,99.99
2019-03-09T03:04:56.747Z,99.99
2019-03-09T03:05:56.745Z,99.99
2019-03-09T03:06:56.720Z,99.99
2019-03-09T03:07:56.706Z,99.99
2019-03-09T03:08:56.708Z,99.99
2019-03-09T03:09:56.683Z,99.99
2019-03-09T03:10:56.701Z,99.99
2019-03-09T03:11:56.665Z,99.99
2019-03-09T03:12:56.656Z,99.99
2019-03-09T03:13:56.643Z,99.99
2019-03-09T03:14:56.632Z,99.99
2019-03-09T03:15:56.634Z,99.99
2019-03-09T03:16:56.627Z,99.99
2019-03-09T03:17:56.611Z,99.99
2019-03-09T03:18:56.597Z,99.99
2019-03-09T03:19:56.579Z,99.99
2019-03-09T03:20:56.566Z,99.99
2019-03-09T03:21:56.554Z,99.99
2019-03-09T03:22:56.577Z,99.99
2019-03-09T03:23:56.543Z,99.99
2019-03-09T03:24:56.531Z,99.99
2019-03-09T03:25:56.511Z,99.99
2019-03-09T03:26:56.505Z,99.99
2019-03-09T03:27:56.492Z,99.99
2019-03-09T03:28:56.504Z,99.99
2019-03-09T03:29:56.476Z,99.99
2019-03-09T03:30:56.478Z,99.99
2019-03-09T03:31:56.487Z,99.99
2019-03-09T03:32:56.466Z,99.99
2019-03-09T03:33:56.429Z,99.99
2019-03-09T03:34:56.428Z,99.99
2019-03-09T03:35:56.402Z,99.99
2019-03-09T03:36:56.405Z,99.99
2019-03-09T03:37:56.390Z,99.99
2019-03-09T03:38:56.390Z,99.99
2019-03-09T03:39:56.360Z,99.99
2019-03-09T03:40:56.390Z,99.99
2019-03-09T03:41:56.334Z,99.99
2019-03-09T03:42:56.340Z,99.99
2019-03-09T03:43:56.347Z,99.99
2019-03-09T03:44:56.337Z,99.99
2019-03-09T03:45:56.302Z,99.99
2019-03-09T03:46:56.285Z,99.99
2019-03-09T03:47:56.278Z,99.99
2019-03-09T03:48:56.272Z,99.99
2019-03-09T03:49:56.250Z,99.99
2019-03-09T03:50:56.263Z,99.99
2019-03-09T03:51:56.235Z,99.99
2019-03-09T03:52:56.218Z,99.99
2019-03-09T03:53:56.211Z,99.99
2019-03-09T03:54:56.208Z,99.99
2019-03-09T03:55:56.219Z,99.99
2019-03-09T03:56:56.180Z,99.99
2019-03-09T03:57:56.169Z,99.99
2019-03-09T03:58:56.153Z,99.99
2019-03-09T03:59:56.144Z,99.99
2019-03-09T04:00:56.133Z,99.99
2019-03-09T04:01:56.140Z,99.99
2019-03-09T04:02:56.117Z,99.99
2019-03-09T04:03:56.146Z,99.99
2019-03-09T04:04:56.094Z,99.99
2019-03-09T04:05:56.085Z,99.99
2019-03-09T04:06:56.067Z,99.99
2019-03-09T04:07:56.060Z,99.99
2019-03-09T04:08:56.056Z,99.99
2019-03-09T04:09:56.061Z,99.99
2019-03-09T04:10:56.024Z,99.99
2019-03-09T04:11:56.025Z,99.99
2019-03-09T04:12:56.006Z,99.99
2019-03-09T04:13:56.010Z,99.99
2019-03-09T04:14:55.989Z,99.99
2019-03-09T04:15:56.003Z,99.99
2019-03-09T04:16:55.977Z,99.99
2019-03-09T04:17:55.957Z,99.99
2019-03-09T04:18:55.949Z,99.99
2019-03-09T04:19:55.931Z,99.99
2019-03-09T04:20:55.925Z,99.99
2019-03-09T04:21:55.925Z,99.99
2019-03-09T04:22:55.920Z,99.99
2019-03-09T04:23:55.891Z,99.99
2019-03-09T04:24:55.878Z,99.99
2019-03-09T04:25:55.868Z,99.99
2019-03-09T04:26:55.860Z,99.99
2019-03-09T04:27:55.866Z,99.99
2019-03-09T04:28:55.838Z,99.99
2019-03-09T04:29:55.833Z,99.99
2019-03-09T04:30:55.810Z,99.99
2019-03-09T04:31:55.803Z,99.99
2019-03-09T04:32:55.823Z,99.99
2019-03-09T04:33:55.784Z,99.99
2019-03-09T04:34:55.775Z,99.99
2019-03-09T04:35:55.774Z,99.99
2019-03-09T04:36:55.760Z,99.99
2019-03-09T04:37:55.742Z,99.99
2019-03-09T04:38:55.746Z,99.99
2019-03-09T04:39:55.721Z,99.99
2019-03-09T04:40:55.709Z,99.99
2019-03-09T04:41:55.698Z,99.99
2019-03-09T04:42:55.680Z,99.99
2019-03-09T04:43:55.673Z,99.99
2019-03-09T04:44:55.690Z,99.99
2019-03-09T04:45:55.649Z,99.99
2019-03-09T04:46:55.644Z,99.99
2019-03-09T04:47:55.637Z,99.99
2019-03-09T04:48:55.621Z,99.99
2019-03-09T04:49:55.619Z,99.99
2019-03-09T04:50:55.617Z,99.99
2019-03-09T04:51:55.587Z,99.99
2019-03-09T04:52:55.576Z,99.99
2019-03-09T04:53:55.562Z,99.99
2019-03-09T04:54:55.560Z,99.99
2019-03-09T04:55:55.589Z,99.99
2019-03-09T04:56:55.533Z,99.99
2019-03-09T04:57:55.524Z,99.99
2019-03-09T04:58:55.517Z,99.99
2019-03-09T04:59:55.507Z,99.99
2019-03-09T05:00:55.503Z,99.99
2019-03-09T05:01:55.508Z,99.99
2019-03-09T05:02:55.468Z,99.99
2019-03-09T05:03:55.477Z,99.99
2019-03-09T05:04:55.446Z,99.99
2019-03-09T05:05:55.440Z,99.99
2019-03-09T05:06:55.431Z,99.99
2019-03-09T05:07:55.418Z,99.99
2019-03-09T05:08:55.424Z,99.99
2019-03-09T05:09:55.402Z,99.99
2019-03-09T05:10:55.383Z,99.99
2019-03-09T05:11:55.372Z,99.99
2019-03-09T05:12:55.364Z,99.99
2019-03-09T05:13:55.381Z,99.99
2019-03-09T05:14:55.345Z,99.99
2019-03-09T05:15:55.330Z,99.99
2019-03-09T05:16:55.322Z,99.99
2019-03-09T05:17:55.306Z,99.99
2019-03-09T05:18:55.301Z,99.99
2019-03-09T05:19:55.315Z,99.99
2019-03-09T05:20:55.282Z,99.99
2019-03-09T05:21:55.270Z,99.99
2019-03-09T05:22:55.255Z,99.99
2019-03-09T05:23:55.246Z,99.99
2019-03-09T05:24:55.242Z,99.99
2019-03-09T05:25:55.267Z,99.99
2019-03-09T05:26:55.217Z,99.99
2019-03-09T05:27:55.202Z,99.99
2019-03-09T05:28:55.193Z,99.99
2019-03-09T05:29:55.176Z,99.99
2019-03-09T05:30:55.173Z,99.99
2019-03-09T05:31:55.177Z,99.99
2019-03-09T05:32:55.154Z,99.99
2019-03-09T05:33:55.141Z,99.99
2019-03-09T05:34:55.124Z,99.99
2019-03-09T05:35:55.115Z,99.99
2019-03-09T05:36:55.122Z,99.99
2019-03-09T05:37:55.091Z,99.99
2019-03-09T05:38:55.087Z,99.99
2019-03-09T05:39:55.074Z,99.99
2019-03-09T05:40:55.064Z,99.99
2019-03-09T05:41:55.074Z,99.99
2019-03-09T05:42:55.045Z,99.99
2019-03-09T05:43:55.060Z,99.99
2019-03-09T05:44:55.034Z,99.99
2019-03-09T05:45:55.012Z,99.99
2019-03-09T05:46:54.996Z,99.99
2019-03-09T05:47:54.985Z,99.99
2019-03-09T05:48:54.977Z,99.99
2019-03-09T05:49:54.983Z,99.99
2019-03-09T05:50:54.985Z,99.99
2019-03-09T05:51:55.006Z,99.99
2019-03-09T05:52:54.934Z,99.99
2019-03-09T05:53:54.952Z,99.99
2019-03-09T05:54:54.909Z,99.99
2019-03-09T05:55:54.900Z,99.99
2019-03-09T05:56:54.889Z,99.99
2019-03-09T05:57:54.894Z,99.99
2019-03-09T05:58:54.874Z,99.99
2019-03-09T05:59:54.860Z,99.99
2019-03-09T06:00:54.850Z,99.99
2019-03-09T06:01:54.836Z,99.99
2019-03-09T06:02:54.857Z,99.99
2019-03-09T06:03:54.824Z,99.99
2019-03-09T06:04:54.808Z,99.99
2019-03-09T06:05:54.809Z,99.99
2019-03-09T06:06:54.779Z,99.99
2019-03-09T06:07:54.772Z,99.99
2019-03-09T06:08:54.779Z,99.99
2019-03-09T06:09:54.758Z,99.99
2019-03-09T06:10:54.747Z,99.99
2019-03-09T06:11:54.742Z,99.99
2019-03-09T06:12:54.730Z,99.99
2019-03-09T06:13:54.758Z,99.99
2019-03-09T06:14:54.725Z,99.99
2019-03-09T06:15:54.687Z,99.99
2019-03-09T06:16:54.678Z,99.99
2019-03-09T06:17:54.671Z,99.99
2019-03-09T06:18:54.651Z,99.99
2019-03-09T06:19:54.651Z,99.99
2019-03-09T06:20:54.663Z,99.99
2019-03-09T06:21:54.622Z,99.99
2019-03-09T06:22:54.615Z,99.99
2019-03-09T06:23:54.608Z,99.99
2019-03-09T06:24:54.602Z,99.99
2019-03-09T06:25:54.584Z,99.99
2019-03-09T06:26:54.614Z,99.99
2019-03-09T06:27:54.557Z,99.99
2019-03-09T06:28:54.550Z,99.99
2019-03-09T06:29:54.533Z,99.99
2019-03-09T06:30:54.531Z,99.99
2019-03-09T06:31:54.541Z,99.99
2019-03-09T06:32:54.526Z,99.99
2019-03-09T06:33:54.496Z,99.99
2019-03-09T06:34:54.486Z,99.99
2019-03-09T06:35:54.481Z,99.99
2019-03-09T06:36:54.490Z,99.99
2019-03-09T06:37:55.827Z,99.99
2019-03-09T06:38:54.465Z,99.99
2019-03-09T06:39:54.435Z,99.99
2019-03-09T06:41:02.639Z,99.99
2019-03-09T06:41:55.403Z,99.99
2019-03-09T06:42:54.400Z,99.99
2019-03-09T06:43:54.415Z,99.99
2019-03-09T06:44:54.381Z,99.99
2019-03-09T06:45:54.370Z,99.99
2019-03-09T06:46:54.364Z,99.99
2019-03-09T06:47:54.362Z,99.99
2019-03-09T06:48:54.333Z,99.99
2019-03-09T06:49:54.344Z,99.99
2019-03-09T06:50:54.312Z,99.99
2019-03-09T06:51:54.309Z,99.99
2019-03-09T06:52:54.293Z,99.99
2019-03-09T06:53:54.276Z,99.99
2019-03-09T06:54:54.301Z,99.55
2019-03-09T06:55:54.267Z,99.99
2019-03-09T06:56:54.248Z,99.99
2019-03-09T06:57:54.248Z,99.65
2019-03-09T06:58:54.259Z,99.55
2019-03-09T06:59:54.213Z,99.55
2019-03-09T07:00:54.219Z,98.83
2019-03-09T07:01:54.195Z,98.62
2019-03-09T07:02:54.186Z,98.52
2019-03-09T07:03:54.173Z,98.62
2019-03-09T07:04:54.163Z,98.52
2019-03-09T07:05:54.199Z,98.52
2019-03-09T07:06:54.165Z,98.52
2019-03-09T07:07:54.129Z,98.11
2019-03-09T07:08:54.131Z,98.00
2019-03-09T07:09:54.147Z,97.86
2019-03-09T07:10:54.120Z,97.75
2019-03-09T07:11:54.084Z,97.44
2019-03-09T07:12:54.097Z,97.65
2019-03-09T07:13:54.060Z,96.37
2019-03-09T07:14:54.058Z,97.61
2019-03-09T07:15:54.045Z,96.47
2019-03-09T07:16:54.065Z,97.14
2019-03-09T07:17:54.028Z,97.09
2019-03-09T07:18:54.031Z,96.37
2019-03-09T07:19:53.997Z,96.47
2019-03-09T07:20:54.014Z,96.47
2019-03-09T07:21:54.013Z,97.19
2019-03-09T07:22:54.029Z,96.78
2019-03-09T07:23:53.972Z,96.27
2019-03-09T07:24:53.974Z,96.53
2019-03-09T07:25:53.931Z,96.12
2019-03-09T22:00:10.179Z,89.23
2019-03-09T22:01:11.870Z,89.23
2019-03-09T22:02:10.152Z,88.61
2019-03-09T22:03:11.880Z,88.31
2019-03-09T22:04:11.877Z,88.20
2019-03-09T22:05:11.884Z,87.79
2019-03-09T22:06:11.868Z,88.41
2019-03-09T22:07:11.876Z,87.68
2019-03-09T22:08:11.879Z,88.31
2019-03-09T22:09:11.878Z,86.41
2019-03-09T22:10:11.897Z,86.61
2019-03-09T22:11:11.890Z,86.10
2019-03-09T22:12:11.876Z,86.61
2019-03-09T22:13:11.865Z,86.10
2019-03-09T22:14:11.875Z,86.10
2019-03-09T22:15:11.958Z,85.33
2019-03-09T22:16:11.880Z,85.27
2019-03-09T22:17:11.892Z,85.17
2019-03-09T22:18:11.928Z,85.78
2019-03-09T22:19:11.875Z,84.81
2019-03-09T22:20:11.877Z,84.72
2019-03-09T22:21:11.878Z,85.23
2019-03-09T22:22:11.890Z,85.13
2019-03-09T22:23:11.881Z,85.02
2019-03-09T22:24:11.880Z,85.37
2019-03-09T22:25:11.866Z,84.75
2019-03-09T22:26:10.877Z,85.27
2019-03-09T22:27:11.374Z,85.06
2019-03-09T22:28:11.386Z,85.17
2019-03-09T22:29:11.377Z,85.02
2019-03-09T22:30:11.377Z,84.20
2019-03-09T22:31:11.375Z,84.13
2019-03-09T22:32:11.381Z,84.09
2019-03-09T22:33:11.366Z,84.92
2019-03-09T22:34:11.377Z,83.89
2019-03-09T22:35:11.375Z,84.09
2019-03-09T22:36:11.373Z,84.09
2019-03-09T22:37:11.373Z,83.89
2019-03-09T22:38:11.380Z,82.65
2019-03-09T22:39:11.399Z,83.27
2019-03-09T22:40:11.375Z,83.99
2019-03-09T22:41:11.382Z,83.27
2019-03-09T22:42:11.374Z,82.75
2019-03-09T22:43:11.387Z,83.06
2019-03-09T22:44:11.371Z,82.55
2019-03-09T22:45:11.378Z,82.75
2019-03-09T22:46:11.362Z,82.96
2019-03-09T22:47:11.921Z,82.86
2019-03-09T22:48:11.375Z,82.89
2019-03-09T22:49:11.385Z,83.41
2019-03-09T22:50:11.376Z,82.03
2019-03-09T22:51:11.372Z,81.62
2019-03-09T22:52:11.374Z,82.14
2019-03-09T22:53:11.412Z,82.34
2019-03-09T22:54:11.373Z,81.82
2019-03-09T22:55:11.383Z,82.14
2019-03-09T22:56:11.372Z,82.03
2019-03-09T22:57:11.361Z,82.55
2019-03-09T22:58:11.372Z,83.06
2019-03-09T22:59:11.403Z,82.34
2019-03-09T23:00:11.384Z,83.41
2019-03-09T23:01:11.368Z,83.31
2019-03-09T23:02:11.360Z,83.41
2019-03-09T23:03:11.369Z,81.82
2019-03-09T23:04:09.469Z,83.20
2019-03-09T23:05:11.383Z,82.89
2019-03-09T23:06:11.371Z,83.72
2019-03-09T23:07:11.369Z,82.45
2019-03-09T23:08:11.371Z,82.34
2019-03-09T23:09:11.382Z,82.24
2019-03-09T23:10:09.411Z,81.41
2019-03-09T23:11:11.371Z,81.51
2019-03-09T23:12:11.368Z,81.79
2019-03-09T23:13:10.876Z,81.68
2019-03-09T23:14:10.879Z,82.24
2019-03-09T23:15:10.868Z,81.27
2019-03-09T23:16:09.410Z,81.62
2019-03-09T23:17:10.870Z,81.48
2019-03-09T23:18:10.869Z,81.62
2019-03-09T23:19:10.870Z,81.48
2019-03-09T23:20:10.876Z,81.37
2019-03-09T23:21:10.874Z,80.86
2019-03-09T23:22:10.872Z,81.58
2019-03-09T23:23:10.870Z,81.17
2019-03-09T23:24:10.876Z,81.58
2019-03-09T23:25:10.868Z,80.44
2019-03-09T23:26:10.874Z,81.17
2019-03-09T23:27:10.866Z,81.27
2019-03-09T23:28:10.869Z,81.79
2019-03-09T23:29:10.872Z,81.21
2019-03-09T23:30:10.870Z,81.51
2019-03-09T23:31:10.869Z,80.65
2019-03-09T23:32:10.876Z,80.72
2019-03-09T23:33:10.857Z,81.17
2019-03-09T23:34:10.857Z,81.03
2019-03-09T23:35:10.866Z,80.62
2019-03-09T23:36:10.872Z,80.82
2019-03-09T23:37:10.880Z,80.93
2019-03-09T23:38:10.857Z,80.62
2019-03-09T23:39:10.867Z,81.13
2019-03-09T23:40:10.867Z,80.93
2019-03-09T23:41:10.871Z,80.82
2019-03-09T23:42:10.879Z,80.41
2019-03-09T23:43:10.872Z,80.51
2019-03-09T23:44:10.866Z,80.51
2019-03-09T23:45:10.856Z,80.30
2019-03-09T23:46:10.864Z,80.93
2019-03-09T23:47:10.864Z,79.79
2019-03-09T23:48:10.876Z,79.38
2019-03-09T23:49:10.870Z,80.82
2019-03-09T23:50:10.875Z,80.82
2019-03-09T23:51:10.866Z,80.30
2019-03-09T23:52:10.867Z,79.90
2019-03-09T23:53:10.871Z,81.75
2019-03-09T23:54:10.867Z,80.30
2019-03-09T23:55:20.760Z,80.72
2019-03-09T23:56:13.616Z,80.51
2019-03-09T23:57:10.875Z,80.62
2019-03-09T23:58:10.866Z,80.82
2019-03-09T23:59:09.866Z,79.69
